createdAt,value
2022-08-12T00:00:37.692Z,1.58
2022-08-12T00:03:24.963Z,1.30
2022-08-12T00:06:11.175Z,1.35
2022-08-12T00:08:58.227Z,1.40
2022-08-12T00:11:46.922Z,1.10
2022-08-12T00:14:33.601Z,1.48
2022-08-12T00:17:22.742Z,1.50
2022-08-12T00:20:09.452Z,1.15
2022-08-12T00:22:59.195Z,1.40
2022-08-12T00:26:21.275Z,1.42
2022-08-12T00:29:04.103Z,1.00
2022-08-12T00:31:50.780Z,1.65
2022-08-12T00:34:38.449Z,1.38
2022-08-12T00:37:25.129Z,1.40
2022-08-12T00:40:12.800Z,1.15
2022-08-12T00:42:42.800Z,1.75
2022-08-12T00:45:11.994Z,1.40
2022-08-12T00:47:40.679Z,1.15
2022-08-12T00:50:12.201Z,1.52
2022-08-12T00:52:42.823Z,1.25
2022-08-12T00:55:10.411Z,1.73
2022-08-12T00:57:38.353Z,1.40
2022-08-12T01:00:11.613Z,1.65
2022-08-12T01:02:42.189Z,1.25
2022-08-12T01:05:37.935Z,1.13
2022-08-12T01:08:24.614Z,1.50
2022-08-12T01:11:11.260Z,1.40
2022-08-12T01:13:48.897Z,1.60
2022-08-12T01:16:20.492Z,1.38
2022-08-12T01:18:50.093Z,1.60
2022-08-12T01:21:55.839Z,1.50
2022-08-12T01:24:54.436Z,1.40
2022-08-12T01:27:24.860Z,1.70
2022-08-12T01:29:54.563Z,1.48
2022-08-12T01:32:25.354Z,1.65
2022-08-12T01:35:16.042Z,1.80
2022-08-12T01:37:58.703Z,1.02
2022-08-12T01:40:37.188Z,1.70
2022-08-12T01:43:09.890Z,1.40
2022-08-12T01:46:07.924Z,1.70
2022-08-12T01:48:53.237Z,1.30
2022-08-12T01:52:15.546Z,1.58
2022-08-12T01:54:30.691Z,1.40
2022-08-12T01:57:17.092Z,1.50
2022-08-12T02:00:14.535Z,1.50
2022-08-12T02:03:01.727Z,1.65
2022-08-12T02:05:53.415Z,1.60
2022-08-12T02:09:09.199Z,1.48
2022-08-12T02:11:59.613Z,1.42
2022-08-12T02:14:57.895Z,1.67
2022-08-12T02:17:55.313Z,1.90
2022-08-12T02:20:51.064Z,1.33
2022-08-12T02:23:20.624Z,1.80
2022-08-12T02:25:52.219Z,1.30
2022-08-12T02:28:20.813Z,1.70
2022-08-12T02:30:49.404Z,2.00
2022-08-12T02:33:19.009Z,1.83
2022-08-12T02:35:47.821Z,1.88
2022-08-12T02:38:15.028Z,1.88
2022-08-12T02:40:45.791Z,1.92
2022-08-12T02:43:34.475Z,1.83
2022-08-12T02:46:04.457Z,1.80
2022-08-12T02:48:39.103Z,1.80
2022-08-12T02:51:09.822Z,1.77
2022-08-12T02:53:38.908Z,2.13
2022-08-12T02:56:07.490Z,1.65
2022-08-12T02:58:41.330Z,1.60
2022-08-12T03:01:13.750Z,1.42
2022-08-12T03:03:42.345Z,1.70
2022-08-12T03:06:16.941Z,1.45
2022-08-12T03:08:53.799Z,1.67
2022-08-12T03:11:41.616Z,1.60
2022-08-12T03:14:23.875Z,1.55
2022-08-12T03:17:01.515Z,1.70
2022-08-12T03:19:32.120Z,1.80
2022-08-12T03:22:13.782Z,1.67
2022-08-12T03:24:44.374Z,1.77
2022-08-12T03:27:15.112Z,1.83
2022-08-12T03:29:50.337Z,1.80
2022-08-12T03:32:35.820Z,1.80
2022-08-12T03:35:07.596Z,1.55
2022-08-12T03:37:38.484Z,1.48
2022-08-12T03:40:09.015Z,1.65
2022-08-12T03:42:41.989Z,1.73
2022-08-12T03:45:52.492Z,1.85
2022-08-12T03:48:41.158Z,1.80
2022-08-12T03:51:27.725Z,1.58
2022-08-12T03:54:16.491Z,1.65
2022-08-12T03:57:02.555Z,2.00
2022-08-12T03:59:49.829Z,1.58
2022-08-12T04:02:18.429Z,1.90
2022-08-12T04:04:49.216Z,2.30
2022-08-12T04:07:17.991Z,2.15
2022-08-12T04:09:47.228Z,1.70
2022-08-12T04:12:34.980Z,1.80
2022-08-12T04:15:04.499Z,1.83
2022-08-12T04:17:33.105Z,2.03
2022-08-12T04:20:01.683Z,1.85
2022-08-12T04:22:31.303Z,1.55
2022-08-12T04:25:01.894Z,1.77
2022-08-12T04:27:32.849Z,1.80
2022-08-12T04:30:30.252Z,2.55
2022-08-12T04:32:54.008Z,2.50
2022-08-12T04:35:21.372Z,1.88
2022-08-12T04:37:58.797Z,1.80
2022-08-12T04:40:30.577Z,1.90
2022-08-12T04:43:02.037Z,2.13
2022-08-12T04:45:33.832Z,1.90
2022-08-12T04:48:02.798Z,2.00
2022-08-12T04:50:35.733Z,2.20
2022-08-12T04:53:08.326Z,2.03
2022-08-12T04:55:39.261Z,2.63
2022-08-12T04:58:10.875Z,2.50
2022-08-12T05:00:40.482Z,2.53
2022-08-12T05:03:08.090Z,2.38
2022-08-12T05:05:37.367Z,2.30
2022-08-12T05:08:06.728Z,2.15
2022-08-12T05:10:36.013Z,2.03
2022-08-12T05:13:08.501Z,2.28
2022-08-12T05:16:04.160Z,2.35
2022-08-12T05:18:29.449Z,2.15
2022-08-12T05:21:00.414Z,2.22
2022-08-12T05:23:28.979Z,2.13
2022-08-12T05:25:58.575Z,2.03
2022-08-12T05:28:29.193Z,2.10
2022-08-12T05:30:58.798Z,1.80
2022-08-12T05:33:39.442Z,1.92
2022-08-12T05:36:17.079Z,2.05
2022-08-12T05:38:58.719Z,1.65
2022-08-12T05:41:27.215Z,2.30
2022-08-12T05:44:08.653Z,1.85
2022-08-12T05:46:36.951Z,2.42
2022-08-12T05:49:06.111Z,2.10
2022-08-12T05:51:41.323Z,2.40
2022-08-12T05:54:12.437Z,2.30
2022-08-12T05:56:42.082Z,2.70
2022-08-12T05:59:13.615Z,2.38
2022-08-12T06:02:08.879Z,2.05
2022-08-12T06:04:29.874Z,2.22
2022-08-12T06:06:57.473Z,2.08
2022-08-12T06:09:27.072Z,2.00
2022-08-12T06:12:05.169Z,2.10
2022-08-12T06:14:38.982Z,2.47
2022-08-12T06:17:08.930Z,2.13
2022-08-12T06:20:26.632Z,1.73
2022-08-12T06:22:28.233Z,1.83
2022-08-12T06:24:56.815Z,2.25
2022-08-12T06:27:24.419Z,2.30
2022-08-12T06:30:06.790Z,2.10
2022-08-12T06:32:51.777Z,1.67
2022-08-12T06:35:48.909Z,1.88
2022-08-12T06:38:26.052Z,1.70
2022-08-12T06:41:17.753Z,1.73
2022-08-12T06:44:07.016Z,1.80
2022-08-12T06:46:37.212Z,1.77
2022-08-12T06:49:06.658Z,1.85
2022-08-12T06:51:34.240Z,1.80
2022-08-12T06:54:02.868Z,1.80
2022-08-12T06:57:02.459Z,1.60
2022-08-12T06:59:22.744Z,1.70
2022-08-12T07:01:52.134Z,2.08
2022-08-12T07:04:38.389Z,1.77
2022-08-12T07:07:11.039Z,1.98
2022-08-12T07:10:03.718Z,1.75
2022-08-12T07:12:32.461Z,1.70
2022-08-12T07:15:02.949Z,1.92
2022-08-12T07:17:36.988Z,1.83
2022-08-12T07:20:06.952Z,1.75
2022-08-12T07:22:34.807Z,1.70
2022-08-12T07:25:22.387Z,1.95
2022-08-12T07:27:55.986Z,2.10
2022-08-12T07:30:23.623Z,1.95
2022-08-12T07:32:56.503Z,1.52
2022-08-12T07:35:33.854Z,1.90
2022-08-12T07:38:03.754Z,1.75
2022-08-12T07:40:37.809Z,1.55
2022-08-12T07:43:05.638Z,1.77
2022-08-12T07:45:35.236Z,1.42
2022-08-12T07:48:03.849Z,1.50
2022-08-12T07:50:31.466Z,1.42
2022-08-12T07:53:02.079Z,1.40
2022-08-12T10:40:01.310Z,0.40
2022-08-12T10:42:33.105Z,0.70
2022-08-12T10:45:09.632Z,0.80
2022-08-12T10:48:07.100Z,0.73
2022-08-12T10:50:56.273Z,0.63
2022-08-12T10:53:21.608Z,0.55
2022-08-12T10:56:09.273Z,0.80
2022-08-12T10:58:37.880Z,0.50
2022-08-12T11:01:50.614Z,0.70
2022-08-12T11:04:24.856Z,0.70
2022-08-12T11:07:05.633Z,0.52
2022-08-12T11:10:00.001Z,1.35
2022-08-12T11:12:55.610Z,0.70
2022-08-12T11:15:33.295Z,0.70
2022-08-12T11:18:18.575Z,0.70
2022-08-12T11:20:48.673Z,0.50
2022-08-12T11:23:25.994Z,0.50
2022-08-12T11:26:06.718Z,0.60
2022-08-12T11:28:38.777Z,0.60
2022-08-12T11:31:10.136Z,0.40
2022-08-12T11:34:05.579Z,0.85
2022-08-12T11:36:31.041Z,0.75
2022-08-12T11:39:04.535Z,0.70
2022-08-12T11:41:37.167Z,0.70
2022-08-12T11:44:36.319Z,0.60
2022-08-12T11:46:55.572Z,0.60
2022-08-12T11:49:31.218Z,0.85
2022-08-12T11:52:02.755Z,0.93
2022-08-12T11:54:36.380Z,0.50
2022-08-12T11:58:07.046Z,0.40
2022-08-12T12:05:54.207Z,1.10
2022-08-12T12:08:38.310Z,0.40
2022-08-12T12:11:13.508Z,0.50
2022-08-12T12:14:07.601Z,0.40
2022-08-12T12:16:30.805Z,0.57
2022-08-12T12:19:02.391Z,0.50
2022-08-12T12:21:47.336Z,0.43
2022-08-12T12:24:21.487Z,0.98
2022-08-12T12:27:00.674Z,0.40
2022-08-12T12:30:13.901Z,0.60
2022-08-12T12:32:29.308Z,0.60
2022-08-12T12:35:44.250Z,0.50
2022-08-12T12:38:04.666Z,0.80
2022-08-12T12:40:39.815Z,0.45
2022-08-12T12:43:08.651Z,0.60
2022-08-12T12:45:44.613Z,0.60
2022-08-12T12:48:24.598Z,1.05
2022-08-12T12:51:49.225Z,0.50
2022-08-12T12:54:08.488Z,0.40
2022-08-12T12:56:48.668Z,0.40
2022-08-12T12:59:56.435Z,0.40
2022-08-12T13:02:14.023Z,0.30
2022-08-12T13:05:00.661Z,0.45
2022-08-12T13:07:54.170Z,0.60
2022-08-12T13:10:17.937Z,0.75
2022-08-12T13:12:45.695Z,0.47
2022-08-12T13:15:42.844Z,0.50
2022-08-12T13:18:05.875Z,0.47
2022-08-12T13:20:38.272Z,0.40
2022-08-12T13:23:36.418Z,0.40
2022-08-12T13:26:02.751Z,0.30
2022-08-12T13:28:31.465Z,0.52
2022-08-12T13:31:00.051Z,0.52
2022-08-12T13:34:34.028Z,0.50
2022-08-12T13:36:51.454Z,1.15
2022-08-12T13:50:49.957Z,0.55
2022-08-12T13:53:24.642Z,0.60
2022-08-12T13:56:05.504Z,0.52
2022-08-12T13:58:58.095Z,0.60
2022-08-12T14:01:26.815Z,0.60
2022-08-12T14:03:54.432Z,1.10
2022-08-12T14:06:26.033Z,0.52
2022-08-12T14:08:58.653Z,0.45
2022-08-12T14:11:28.045Z,0.60
2022-08-12T14:14:05.766Z,0.40
2022-08-12T14:17:27.607Z,0.98
2022-08-12T14:20:23.214Z,0.40
2022-08-12T14:24:08.037Z,0.60
2022-08-12T14:25:48.902Z,0.57
2022-08-12T14:28:21.506Z,0.40
2022-08-12T14:31:00.167Z,0.77
2022-08-12T14:33:49.844Z,0.50
2022-08-12T14:36:23.405Z,0.40
2022-08-12T14:38:57.281Z,0.50
2022-08-12T14:41:37.134Z,0.30
2022-08-12T14:44:57.953Z,0.43
2022-08-12T14:47:58.327Z,0.60
2022-08-12T14:52:55.822Z,0.70
2022-08-12T14:57:19.090Z,0.60
2022-08-12T15:00:08.662Z,0.40
2022-08-12T15:02:46.312Z,0.60
2022-08-12T15:06:39.473Z,0.57
2022-08-12T15:08:05.031Z,0.82
2022-08-12T15:10:43.597Z,0.50
2022-08-12T15:13:25.967Z,0.50
2022-08-12T15:16:09.906Z,0.95
2022-08-12T15:51:58.289Z,1.05
2022-08-12T15:54:34.343Z,0.60
2022-08-12T15:57:07.697Z,0.50
2022-08-12T16:00:00.793Z,0.75
2022-08-12T16:02:26.804Z,0.70
2022-08-12T16:04:54.279Z,0.70
2022-08-12T16:07:30.159Z,0.75
2022-08-12T16:10:06.193Z,0.70
2022-08-12T16:12:54.549Z,1.00
2022-08-12T16:15:26.479Z,0.70
2022-08-12T16:18:15.175Z,0.50
2022-08-12T16:20:46.783Z,0.60
2022-08-12T16:23:36.586Z,0.60
2022-08-12T16:26:14.644Z,0.60
2022-08-12T16:28:44.101Z,0.60
2022-08-12T16:31:22.930Z,0.70
2022-08-12T16:33:59.488Z,0.70
2022-08-12T16:36:29.940Z,0.55
2022-08-12T16:38:57.520Z,0.95
2022-08-12T16:41:29.457Z,0.68
2022-08-12T16:44:06.210Z,0.60
2022-08-12T16:46:36.151Z,0.70
2022-08-12T16:49:13.927Z,0.70
2022-08-12T16:51:45.915Z,0.70
2022-08-12T16:54:16.401Z,0.85
2022-08-12T16:56:55.288Z,0.80
2022-08-12T16:59:30.960Z,1.02
2022-08-12T17:02:31.780Z,0.73
2022-08-12T17:05:03.762Z,0.50
2022-08-12T17:07:36.757Z,0.90
2022-08-12T17:10:07.079Z,0.55
2022-08-12T17:12:37.535Z,0.50
2022-08-12T17:15:51.253Z,0.60
2022-08-12T17:18:39.086Z,0.50
2022-08-12T17:20:47.294Z,0.63
2022-08-12T17:23:16.404Z,0.60
2022-08-12T17:25:51.917Z,0.50
2022-08-12T17:28:22.516Z,0.50
2022-08-12T17:30:54.458Z,0.77
2022-08-12T17:33:33.572Z,0.45
2022-08-12T17:36:05.577Z,0.80
2022-08-12T17:38:34.720Z,0.40
2022-08-12T17:41:22.819Z,0.55
2022-08-12T17:43:58.346Z,0.65
2022-08-12T17:46:33.706Z,0.70
2022-08-12T17:49:00.618Z,0.60
2022-08-12T17:51:50.366Z,1.00
2022-08-12T17:54:24.254Z,0.70
2022-08-12T17:56:51.668Z,0.63
2022-08-12T17:59:47.269Z,0.60
2022-08-12T18:02:12.350Z,0.50
2022-08-12T18:05:04.932Z,0.60
2022-08-12T18:07:35.853Z,0.50
2022-08-12T18:10:05.426Z,0.70
2022-08-12T18:12:40.160Z,1.10
2022-08-12T18:15:26.556Z,0.88
2022-08-12T18:18:04.649Z,1.70
2022-08-12T18:20:36.473Z,1.77
2022-08-12T18:23:05.316Z,1.63
2022-08-12T18:26:14.897Z,1.23
2022-08-12T18:28:43.673Z,2.00
2022-08-12T18:31:13.109Z,1.25
2022-08-12T18:33:45.786Z,1.75
2022-08-12T18:36:14.180Z,1.00
2022-08-12T18:38:44.954Z,1.38
2022-08-12T18:41:35.703Z,1.00
2022-08-12T18:44:11.115Z,0.70
2022-08-12T18:46:53.844Z,0.80
2022-08-12T18:52:05.691Z,1.23
2022-08-12T18:54:41.631Z,0.60
2022-08-12T18:57:45.857Z,0.70
2022-08-12T19:00:07.815Z,0.60
2022-08-12T19:02:40.313Z,0.75
2022-08-12T19:07:57.863Z,0.88
2022-08-12T19:10:29.899Z,0.70
2022-08-12T19:13:23.144Z,1.23
2022-08-12T19:15:53.746Z,1.15
2022-08-12T19:18:22.620Z,0.60
2022-08-12T19:20:50.685Z,0.52
2022-08-12T19:23:20.824Z,0.60
2022-08-12T19:26:00.235Z,0.60
2022-08-12T19:28:38.431Z,0.50
2022-08-12T19:31:44.768Z,0.50
2022-08-12T19:37:26.699Z,0.75
2022-08-12T19:40:09.228Z,0.60
2022-08-12T19:42:48.228Z,0.82
2022-08-12T19:45:16.682Z,0.70
2022-08-12T19:47:45.139Z,0.80
2022-08-12T19:50:20.145Z,0.70
2022-08-12T19:52:47.980Z,0.60
2022-08-12T19:55:21.133Z,0.80
2022-08-12T19:58:02.828Z,0.50
2022-08-12T20:00:34.948Z,0.70
2022-08-12T20:03:04.442Z,0.68
2022-08-12T20:06:06.792Z,0.60
2022-08-12T20:08:37.740Z,0.82
2022-08-12T20:12:13.088Z,0.70
2022-08-12T20:14:00.457Z,0.90
2022-08-12T20:16:57.624Z,0.70
2022-08-12T20:19:52.911Z,0.80
2022-08-12T20:22:24.616Z,1.13
2022-08-12T20:25:01.740Z,0.90
2022-08-12T20:28:03.631Z,0.98
2022-08-12T20:30:37.462Z,0.82
2022-08-12T20:33:18.924Z,0.60
2022-08-12T20:36:06.850Z,0.80
2022-08-12T20:38:39.636Z,0.95
2022-08-12T20:41:16.660Z,1.33
2022-08-12T20:43:46.811Z,1.30
2022-08-12T20:46:14.041Z,1.02
2022-08-12T20:48:44.193Z,0.80
2022-08-12T20:51:15.761Z,0.85
2022-08-12T20:53:57.869Z,0.90
2022-08-12T20:56:34.399Z,0.88
2022-08-12T20:59:05.653Z,0.95
2022-08-12T21:01:45.936Z,0.68
2022-08-12T21:04:34.461Z,1.10
2022-08-12T21:07:08.328Z,0.90
2022-08-12T21:09:44.678Z,0.80
2022-08-12T21:12:31.213Z,0.90
2022-08-12T21:15:23.677Z,0.90
2022-08-12T21:18:11.679Z,0.95
2022-08-12T21:20:54.286Z,0.70
2022-08-12T21:23:22.905Z,0.80
2022-08-12T21:25:52.545Z,0.80
2022-08-12T21:28:20.640Z,1.30
2022-08-12T21:31:10.979Z,0.80
2022-08-12T21:34:07.886Z,0.88
2022-08-12T21:36:34.596Z,0.88
2022-08-12T21:39:18.383Z,0.90
2022-08-12T21:41:52.436Z,0.80
2022-08-12T21:44:24.288Z,0.90
2022-08-12T21:47:20.334Z,0.90
2022-08-12T21:50:04.033Z,0.60
2022-08-12T21:52:40.738Z,1.05
2022-08-12T21:55:18.006Z,1.00
2022-08-12T21:57:53.050Z,1.30
2022-08-12T22:00:32.907Z,1.02
2022-08-12T22:04:01.831Z,0.82
2022-08-12T22:06:25.872Z,0.90
2022-08-12T22:09:02.528Z,0.90
2022-08-12T22:11:41.796Z,1.07
2022-08-12T22:14:21.453Z,0.75
2022-08-12T22:16:50.571Z,1.02
2022-08-12T22:19:19.661Z,0.90
2022-08-12T22:21:54.379Z,1.27
2022-08-12T22:24:27.095Z,0.70
2022-08-12T22:27:18.031Z,0.90
2022-08-12T22:30:09.493Z,0.98
2022-08-12T22:32:51.531Z,1.58
2022-08-12T22:35:55.347Z,0.95
2022-08-12T22:38:29.296Z,1.10
2022-08-12T22:41:00.892Z,0.90
2022-08-12T22:44:00.953Z,1.00
2022-08-12T22:46:52.958Z,1.08
2022-08-12T22:49:37.256Z,1.10
2022-08-12T22:52:18.560Z,1.52
2022-08-12T22:55:02.523Z,1.10
2022-08-12T22:57:49.121Z,1.05
2022-08-12T23:00:24.067Z,0.82
2022-08-12T23:02:59.343Z,1.10
2022-08-12T23:05:57.780Z,1.23
2022-08-12T23:08:18.285Z,1.10
2022-08-12T23:10:47.141Z,1.25
2022-08-12T23:13:42.969Z,1.25
2022-08-12T23:16:28.214Z,1.08
2022-08-12T23:19:18.126Z,1.27
2022-08-12T23:22:06.569Z,0.90
2022-08-12T23:24:56.475Z,1.17
2022-08-12T23:30:31.851Z,1.10
2022-08-12T23:33:13.605Z,1.00
2022-08-12T23:35:59.232Z,1.00
2022-08-12T23:38:32.950Z,1.10
2022-08-12T23:41:02.404Z,1.02
2022-08-12T23:43:38.767Z,1.67
2022-08-12T23:46:19.844Z,1.30
2022-08-12T23:48:50.447Z,1.20
2022-08-12T23:51:24.502Z,1.13
2022-08-12T23:53:59.713Z,1.52
2022-08-12T23:56:32.816Z,1.20
2022-08-12T23:59:09.361Z,1.40
